sensor_id;sensor_type;location;lat;lon;timestamp;P1;durP1;ratioP1;P2;durP2;ratioP2
37777;SDS011;23615;51.506;7.678;2024-02-26T00:01:55;0.13;;;0.10;;
37777;SDS011;23615;51.506;7.678;2024-02-26T00:04:20;0.10;;;0.10;;
37777;SDS011;23615;51.506;7.678;2024-02-26T00:06:46;0.40;;;0.20;;
37777;SDS011;23615;51.506;7.678;2024-02-26T00:09:13;0.50;;;0.20;;
37777;SDS011;23615;51.506;7.678;2024-02-26T00:11:38;1.00;;;0.20;;
37777;SDS011;23615;51.506;7.678;2024-02-26T00:14:03;1.25;;;0.30;;
37777;SDS011;23615;51.506;7.678;2024-02-26T00:16:29;1.40;;;0.30;;
37777;SDS011;23615;51.506;7.678;2024-02-26T00:18:55;0.90;;;0.30;;
37777;SDS011;23615;51.506;7.678;2024-02-26T00:21:20;0.37;;;0.30;;
37777;SDS011;23615;51.506;7.678;2024-02-26T00:23:45;0.63;;;0.40;;
37777;SDS011;23615;51.506;7.678;2024-02-26T00:26:11;0.83;;;0.30;;
37777;SDS011;23615;51.506;7.678;2024-02-26T00:28:36;0.90;;;0.40;;
37777;SDS011;23615;51.506;7.678;2024-02-26T00:31:02;0.30;;;0.23;;
37777;SDS011;23615;51.506;7.678;2024-02-26T00:33:27;0.43;;;0.30;;
37777;SDS011;23615;51.506;7.678;2024-02-26T00:35:53;0.77;;;0.50;;
37777;SDS011;23615;51.506;7.678;2024-02-26T00:38:18;0.20;;;0.20;;
37777;SDS011;23615;51.506;7.678;2024-02-26T00:40:43;0.40;;;0.30;;
37777;SDS011;23615;51.506;7.678;2024-02-26T00:43:09;0.50;;;0.30;;
37777;SDS011;23615;51.506;7.678;2024-02-26T00:45:34;0.40;;;0.30;;
37777;SDS011;23615;51.506;7.678;2024-02-26T00:47:59;0.50;;;0.40;;
37777;SDS011;23615;51.506;7.678;2024-02-26T00:50:30;0.50;;;0.38;;
37777;SDS011;23615;51.506;7.678;2024-02-26T00:52:56;0.50;;;0.30;;
37777;SDS011;23615;51.506;7.678;2024-02-26T00:55:21;0.30;;;0.30;;
37777;SDS011;23615;51.506;7.678;2024-02-26T00:57:46;0.80;;;0.27;;
37777;SDS011;23615;51.506;7.678;2024-02-26T01:00:12;0.60;;;0.27;;
37777;SDS011;23615;51.506;7.678;2024-02-26T01:02:38;0.98;;;0.32;;
37777;SDS011;23615;51.506;7.678;2024-02-26T01:05:04;0.83;;;0.57;;
37777;SDS011;23615;51.506;7.678;2024-02-26T01:07:31;0.32;;;0.30;;
37777;SDS011;23615;51.506;7.678;2024-02-26T01:10:00;0.45;;;0.20;;
37777;SDS011;23615;51.506;7.678;2024-02-26T01:12:26;0.40;;;0.20;;
37777;SDS011;23615;51.506;7.678;2024-02-26T01:14:51;0.83;;;0.37;;
37777;SDS011;23615;51.506;7.678;2024-02-26T01:17:16;1.00;;;0.20;;
37777;SDS011;23615;51.506;7.678;2024-02-26T01:19:42;0.40;;;0.30;;
37777;SDS011;23615;51.506;7.678;2024-02-26T01:22:08;0.80;;;0.40;;
37777;SDS011;23615;51.506;7.678;2024-02-26T01:24:33;0.30;;;0.20;;
37777;SDS011;23615;51.506;7.678;2024-02-26T01:26:58;0.20;;;0.20;;
37777;SDS011;23615;51.506;7.678;2024-02-26T01:29:24;0.27;;;0.20;;
37777;SDS011;23615;51.506;7.678;2024-02-26T01:31:49;1.50;;;0.33;;
37777;SDS011;23615;51.506;7.678;2024-02-26T01:34:14;0.40;;;0.30;;
37777;SDS011;23615;51.506;7.678;2024-02-26T01:36:39;0.60;;;0.23;;
37777;SDS011;23615;51.506;7.678;2024-02-26T01:39:05;0.40;;;0.20;;
37777;SDS011;23615;51.506;7.678;2024-02-26T01:41:31;0.33;;;0.23;;
37777;SDS011;23615;51.506;7.678;2024-02-26T01:43:56;0.47;;;0.27;;
37777;SDS011;23615;51.506;7.678;2024-02-26T01:46:21;0.30;;;0.30;;
37777;SDS011;23615;51.506;7.678;2024-02-26T01:48:47;0.50;;;0.25;;
37777;SDS011;23615;51.506;7.678;2024-02-26T01:51:14;0.80;;;0.35;;
37777;SDS011;23615;51.506;7.678;2024-02-26T01:53:40;0.50;;;0.40;;
37777;SDS011;23615;51.506;7.678;2024-02-26T01:56:06;1.10;;;0.40;;
37777;SDS011;23615;51.506;7.678;2024-02-26T01:58:32;0.80;;;0.35;;
37777;SDS011;23615;51.506;7.678;2024-02-26T02:00:59;0.40;;;0.30;;
37777;SDS011;23615;51.506;7.678;2024-02-26T02:03:26;0.65;;;0.40;;
37777;SDS011;23615;51.506;7.678;2024-02-26T02:05:53;0.63;;;0.30;;
37777;SDS011;23615;51.506;7.678;2024-02-26T02:08:18;0.43;;;0.33;;
37777;SDS011;23615;51.506;7.678;2024-02-26T02:10:43;0.30;;;0.30;;
37777;SDS011;23615;51.506;7.678;2024-02-26T02:13:12;0.80;;;0.40;;
37777;SDS011;23615;51.506;7.678;2024-02-26T02:15:37;0.60;;;0.40;;
37777;SDS011;23615;51.506;7.678;2024-02-26T02:18:03;0.70;;;0.30;;
37777;SDS011;23615;51.506;7.678;2024-02-26T02:20:32;1.48;;;0.38;;
37777;SDS011;23615;51.506;7.678;2024-02-26T02:22:58;0.40;;;0.30;;
37777;SDS011;23615;51.506;7.678;2024-02-26T02:25:24;0.43;;;0.30;;
37777;SDS011;23615;51.506;7.678;2024-02-26T02:27:49;1.10;;;0.37;;
37777;SDS011;23615;51.506;7.678;2024-02-26T02:30:16;1.10;;;0.60;;
37777;SDS011;23615;51.506;7.678;2024-02-26T02:32:42;0.63;;;0.40;;
37777;SDS011;23615;51.506;7.678;2024-02-26T02:35:08;0.33;;;0.30;;
37777;SDS011;23615;51.506;7.678;2024-02-26T02:37:33;0.40;;;0.20;;
37777;SDS011;23615;51.506;7.678;2024-02-26T02:39:59;0.80;;;0.43;;
37777;SDS011;23615;51.506;7.678;2024-02-26T02:42:24;0.45;;;0.30;;
37777;SDS011;23615;51.506;7.678;2024-02-26T02:44:50;0.40;;;0.30;;
37777;SDS011;23615;51.506;7.678;2024-02-26T02:47:16;0.40;;;0.30;;
37777;SDS011;23615;51.506;7.678;2024-02-26T02:49:41;0.70;;;0.40;;
37777;SDS011;23615;51.506;7.678;2024-02-26T02:52:06;0.40;;;0.30;;
37777;SDS011;23615;51.506;7.678;2024-02-26T02:54:32;0.50;;;0.30;;
37777;SDS011;23615;51.506;7.678;2024-02-26T02:56:57;0.50;;;0.40;;
37777;SDS011;23615;51.506;7.678;2024-02-26T02:59:23;0.80;;;0.30;;
37777;SDS011;23615;51.506;7.678;2024-02-26T03:01:48;0.23;;;0.20;;
37777;SDS011;23615;51.506;7.678;2024-02-26T03:04:15;0.30;;;0.30;;
37777;SDS011;23615;51.506;7.678;2024-02-26T03:06:40;0.40;;;0.30;;
37777;SDS011;23615;51.506;7.678;2024-02-26T03:09:05;0.20;;;0.20;;
37777;SDS011;23615;51.506;7.678;2024-02-26T03:11:31;0.57;;;0.32;;
37777;SDS011;23615;51.506;7.678;2024-02-26T03:13:56;0.63;;;0.40;;
37777;SDS011;23615;51.506;7.678;2024-02-26T03:16:22;0.60;;;0.30;;
37777;SDS011;23615;51.506;7.678;2024-02-26T03:18:47;0.30;;;0.30;;
37777;SDS011;23615;51.506;7.678;2024-02-26T03:21:12;0.60;;;0.37;;
37777;SDS011;23615;51.506;7.678;2024-02-26T03:23:38;1.37;;;0.43;;
37777;SDS011;23615;51.506;7.678;2024-02-26T03:26:03;0.80;;;0.40;;
37777;SDS011;23615;51.506;7.678;2024-02-26T03:28:29;0.80;;;0.30;;
37777;SDS011;23615;51.506;7.678;2024-02-26T03:30:54;0.57;;;0.30;;
37777;SDS011;23615;51.506;7.678;2024-02-26T03:33:19;0.30;;;0.30;;
37777;SDS011;23615;51.506;7.678;2024-02-26T03:35:45;0.90;;;0.50;;
37777;SDS011;23615;51.506;7.678;2024-02-26T03:38:10;0.63;;;0.40;;
37777;SDS011;23615;51.506;7.678;2024-02-26T03:40:35;0.70;;;0.20;;
37777;SDS011;23615;51.506;7.678;2024-02-26T03:43:01;0.33;;;0.33;;
37777;SDS011;23615;51.506;7.678;2024-02-26T03:45:27;0.30;;;0.30;;
37777;SDS011;23615;51.506;7.678;2024-02-26T03:47:53;1.00;;;0.30;;
37777;SDS011;23615;51.506;7.678;2024-02-26T03:50:18;0.90;;;0.30;;
37777;SDS011;23615;51.506;7.678;2024-02-26T03:52:43;0.20;;;0.20;;
37777;SDS011;23615;51.506;7.678;2024-02-26T03:55:08;0.50;;;0.40;;
37777;SDS011;23615;51.506;7.678;2024-02-26T03:57:35;0.95;;;0.40;;
37777;SDS011;23615;51.506;7.678;2024-02-26T04:00:01;0.47;;;0.40;;
37777;SDS011;23615;51.506;7.678;2024-02-26T04:02:26;1.60;;;0.40;;
37777;SDS011;23615;51.506;7.678;2024-02-26T04:04:52;0.30;;;0.30;;
37777;SDS011;23615;51.506;7.678;2024-02-26T04:07:17;0.77;;;0.30;;
37777;SDS011;23615;51.506;7.678;2024-02-26T04:09:42;0.57;;;0.40;;
37777;SDS011;23615;51.506;7.678;2024-02-26T04:12:08;0.60;;;0.30;;
37777;SDS011;23615;51.506;7.678;2024-02-26T04:14:33;0.30;;;0.30;;
37777;SDS011;23615;51.506;7.678;2024-02-26T04:17:00;0.40;;;0.40;;
37777;SDS011;23615;51.506;7.678;2024-02-26T04:19:25;0.40;;;0.40;;
37777;SDS011;23615;51.506;7.678;2024-02-26T04:21:50;0.50;;;0.50;;
37777;SDS011;23615;51.506;7.678;2024-02-26T04:24:16;0.57;;;0.30;;
37777;SDS011;23615;51.506;7.678;2024-02-26T04:26:41;1.30;;;0.30;;
37777;SDS011;23615;51.506;7.678;2024-02-26T04:29:06;0.40;;;0.40;;
37777;SDS011;23615;51.506;7.678;2024-02-26T04:31:32;0.87;;;0.50;;
37777;SDS011;23615;51.506;7.678;2024-02-26T04:33:58;0.50;;;0.30;;
37777;SDS011;23615;51.506;7.678;2024-02-26T04:36:23;1.00;;;0.30;;
37777;SDS011;23615;51.506;7.678;2024-02-26T04:38:50;0.45;;;0.30;;
37777;SDS011;23615;51.506;7.678;2024-02-26T04:41:16;0.57;;;0.30;;
37777;SDS011;23615;51.506;7.678;2024-02-26T04:43:41;3.13;;;0.40;;
37777;SDS011;23615;51.506;7.678;2024-02-26T04:46:07;0.40;;;0.40;;
37777;SDS011;23615;51.506;7.678;2024-02-26T04:48:34;0.30;;;0.30;;
37777;SDS011;23615;51.506;7.678;2024-02-26T04:50:59;0.50;;;0.40;;
37777;SDS011;23615;51.506;7.678;2024-02-26T04:53:25;0.30;;;0.30;;
37777;SDS011;23615;51.506;7.678;2024-02-26T04:55:50;0.60;;;0.40;;
37777;SDS011;23615;51.506;7.678;2024-02-26T04:58:16;0.40;;;0.30;;
37777;SDS011;23615;51.506;7.678;2024-02-26T05:00:42;0.85;;;0.25;;
37777;SDS011;23615;51.506;7.678;2024-02-26T05:03:07;0.30;;;0.30;;
37777;SDS011;23615;51.506;7.678;2024-02-26T05:05:33;0.22;;;0.20;;
37777;SDS011;23615;51.506;7.678;2024-02-26T05:07:58;0.50;;;0.20;;
37777;SDS011;23615;51.506;7.678;2024-02-26T05:10:23;0.53;;;0.20;;
37777;SDS011;23615;51.506;7.678;2024-02-26T05:12:48;0.50;;;0.40;;
37777;SDS011;23615;51.506;7.678;2024-02-26T05:15:14;0.30;;;0.30;;
37777;SDS011;23615;51.506;7.678;2024-02-26T05:17:43;1.00;;;0.20;;
37777;SDS011;23615;51.506;7.678;2024-02-26T05:20:09;0.67;;;0.43;;
37777;SDS011;23615;51.506;7.678;2024-02-26T05:22:34;0.88;;;0.40;;
37777;SDS011;23615;51.506;7.678;2024-02-26T05:25:00;0.43;;;0.20;;
37777;SDS011;23615;51.506;7.678;2024-02-26T05:27:25;1.90;;;0.50;;
37777;SDS011;23615;51.506;7.678;2024-02-26T05:29:50;0.60;;;0.30;;
37777;SDS011;23615;51.506;7.678;2024-02-26T05:32:16;0.32;;;0.30;;
37777;SDS011;23615;51.506;7.678;2024-02-26T05:34:42;0.40;;;0.30;;
37777;SDS011;23615;51.506;7.678;2024-02-26T05:37:07;0.60;;;0.50;;
37777;SDS011;23615;51.506;7.678;2024-02-26T05:39:32;0.40;;;0.40;;
37777;SDS011;23615;51.506;7.678;2024-02-26T05:41:58;0.50;;;0.40;;
37777;SDS011;23615;51.506;7.678;2024-02-26T05:44:26;0.75;;;0.40;;
37777;SDS011;23615;51.506;7.678;2024-02-26T05:46:52;0.32;;;0.30;;
37777;SDS011;23615;51.506;7.678;2024-02-26T05:49:17;0.30;;;0.30;;
37777;SDS011;23615;51.506;7.678;2024-02-26T05:51:42;0.40;;;0.38;;
37777;SDS011;23615;51.506;7.678;2024-02-26T05:54:07;0.88;;;0.38;;
37777;SDS011;23615;51.506;7.678;2024-02-26T05:56:33;0.20;;;0.20;;
37777;SDS011;23615;51.506;7.678;2024-02-26T05:58:58;0.30;;;0.30;;
37777;SDS011;23615;51.506;7.678;2024-02-26T06:01:24;0.30;;;0.30;;
37777;SDS011;23615;51.506;7.678;2024-02-26T06:03:50;0.93;;;0.40;;
37777;SDS011;23615;51.506;7.678;2024-02-26T06:06:16;0.40;;;0.40;;
37777;SDS011;23615;51.506;7.678;2024-02-26T06:08:41;0.90;;;0.40;;
37777;SDS011;23615;51.506;7.678;2024-02-26T06:11:07;0.73;;;0.33;;
37777;SDS011;23615;51.506;7.678;2024-02-26T06:13:33;0.60;;;0.40;;
37777;SDS011;23615;51.506;7.678;2024-02-26T06:15:59;0.40;;;0.38;;
37777;SDS011;23615;51.506;7.678;2024-02-26T06:18:24;0.50;;;0.40;;
37777;SDS011;23615;51.506;7.678;2024-02-26T06:20:49;1.10;;;0.80;;
37777;SDS011;23615;51.506;7.678;2024-02-26T06:23:15;0.33;;;0.33;;
37777;SDS011;23615;51.506;7.678;2024-02-26T06:25:40;0.90;;;0.40;;
37777;SDS011;23615;51.506;7.678;2024-02-26T06:28:07;0.75;;;0.50;;
37777;SDS011;23615;51.506;7.678;2024-02-26T06:30:33;0.50;;;0.38;;
37777;SDS011;23615;51.506;7.678;2024-02-26T06:32:58;0.80;;;0.40;;
37777;SDS011;23615;51.506;7.678;2024-02-26T06:35:23;0.70;;;0.33;;
37777;SDS011;23615;51.506;7.678;2024-02-26T06:37:48;0.47;;;0.38;;
37777;SDS011;23615;51.506;7.678;2024-02-26T06:40:17;1.52;;;0.40;;
37777;SDS011;23615;51.506;7.678;2024-02-26T06:42:43;0.50;;;0.30;;
37777;SDS011;23615;51.506;7.678;2024-02-26T06:45:09;0.40;;;0.40;;
37777;SDS011;23615;51.506;7.678;2024-02-26T06:47:34;1.10;;;0.40;;
37777;SDS011;23615;51.506;7.678;2024-02-26T06:50:00;0.75;;;0.38;;
37777;SDS011;23615;51.506;7.678;2024-02-26T06:52:25;0.30;;;0.30;;
37777;SDS011;23615;51.506;7.678;2024-02-26T06:54:51;1.00;;;0.60;;
37777;SDS011;23615;51.506;7.678;2024-02-26T06:57:18;1.48;;;0.50;;
37777;SDS011;23615;51.506;7.678;2024-02-26T06:59:46;0.55;;;0.30;;
37777;SDS011;23615;51.506;7.678;2024-02-26T07:02:12;0.70;;;0.40;;
37777;SDS011;23615;51.506;7.678;2024-02-26T07:04:41;0.65;;;0.50;;
37777;SDS011;23615;51.506;7.678;2024-02-26T07:07:07;1.60;;;0.57;;
37777;SDS011;23615;51.506;7.678;2024-02-26T07:09:32;1.57;;;0.90;;
37777;SDS011;23615;51.506;7.678;2024-02-26T07:11:58;1.10;;;0.60;;
37777;SDS011;23615;51.506;7.678;2024-02-26T07:14:23;2.13;;;0.53;;
37777;SDS011;23615;51.506;7.678;2024-02-26T07:16:49;1.10;;;0.50;;
37777;SDS011;23615;51.506;7.678;2024-02-26T07:19:15;1.23;;;0.50;;
37777;SDS011;23615;51.506;7.678;2024-02-26T07:21:40;0.73;;;0.50;;
37777;SDS011;23615;51.506;7.678;2024-02-26T07:24:05;1.00;;;0.50;;
37777;SDS011;23615;51.506;7.678;2024-02-26T07:26:31;1.73;;;0.63;;
37777;SDS011;23615;51.506;7.678;2024-02-26T07:28:56;0.50;;;0.47;;
37777;SDS011;23615;51.506;7.678;2024-02-26T07:31:22;1.47;;;0.60;;
37777;SDS011;23615;51.506;7.678;2024-02-26T07:33:47;1.33;;;0.80;;
37777;SDS011;23615;51.506;7.678;2024-02-26T07:36:12;1.13;;;0.80;;
37777;SDS011;23615;51.506;7.678;2024-02-26T07:38:38;0.90;;;0.60;;
37777;SDS011;23615;51.506;7.678;2024-02-26T07:41:03;0.70;;;0.67;;
37777;SDS011;23615;51.506;7.678;2024-02-26T07:43:28;0.83;;;0.67;;
37777;SDS011;23615;51.506;7.678;2024-02-26T07:45:54;1.20;;;0.67;;
37777;SDS011;23615;51.506;7.678;2024-02-26T07:48:19;0.40;;;0.40;;
37777;SDS011;23615;51.506;7.678;2024-02-26T07:50:45;0.73;;;0.50;;
37777;SDS011;23615;51.506;7.678;2024-02-26T07:53:10;0.75;;;0.55;;
37777;SDS011;23615;51.506;7.678;2024-02-26T07:55:35;3.50;;;0.70;;
37777;SDS011;23615;51.506;7.678;2024-02-26T07:58:00;0.60;;;0.53;;
37777;SDS011;23615;51.506;7.678;2024-02-26T08:00:26;0.65;;;0.60;;
37777;SDS011;23615;51.506;7.678;2024-02-26T08:02:51;1.40;;;0.50;;
37777;SDS011;23615;51.506;7.678;2024-02-26T08:05:16;1.77;;;0.73;;
37777;SDS011;23615;51.506;7.678;2024-02-26T08:07:42;0.80;;;0.60;;
37777;SDS011;23615;51.506;7.678;2024-02-26T08:10:07;1.37;;;0.80;;
37777;SDS011;23615;51.506;7.678;2024-02-26T08:12:33;1.57;;;0.50;;
37777;SDS011;23615;51.506;7.678;2024-02-26T08:14:58;1.70;;;0.80;;
37777;SDS011;23615;51.506;7.678;2024-02-26T08:17:24;0.73;;;0.50;;
37777;SDS011;23615;51.506;7.678;2024-02-26T08:19:49;1.58;;;0.98;;
37777;SDS011;23615;51.506;7.678;2024-02-26T08:22:14;2.10;;;1.00;;
37777;SDS011;23615;51.506;7.678;2024-02-26T08:24:42;1.00;;;0.80;;
37777;SDS011;23615;51.506;7.678;2024-02-26T08:27:07;0.77;;;0.70;;
37777;SDS011;23615;51.506;7.678;2024-02-26T08:29:33;0.77;;;0.63;;
37777;SDS011;23615;51.506;7.678;2024-02-26T08:31:58;1.10;;;0.80;;
37777;SDS011;23615;51.506;7.678;2024-02-26T08:34:24;1.10;;;0.80;;
37777;SDS011;23615;51.506;7.678;2024-02-26T08:36:49;1.20;;;0.73;;
37777;SDS011;23615;51.506;7.678;2024-02-26T08:39:16;1.25;;;0.63;;
37777;SDS011;23615;51.506;7.678;2024-02-26T08:41:42;0.82;;;0.70;;
37777;SDS011;23615;51.506;7.678;2024-02-26T08:44:08;0.80;;;0.67;;
37777;SDS011;23615;51.506;7.678;2024-02-26T08:46:33;1.77;;;0.57;;
37777;SDS011;23615;51.506;7.678;2024-02-26T08:48:58;1.20;;;0.67;;
37777;SDS011;23615;51.506;7.678;2024-02-26T08:51:24;1.30;;;0.87;;
37777;SDS011;23615;51.506;7.678;2024-02-26T08:53:49;1.27;;;0.80;;
37777;SDS011;23615;51.506;7.678;2024-02-26T08:56:16;1.10;;;0.60;;
37777;SDS011;23615;51.506;7.678;2024-02-26T08:58:44;2.00;;;0.95;;
37777;SDS011;23615;51.506;7.678;2024-02-26T09:01:09;1.58;;;1.10;;
37777;SDS011;23615;51.506;7.678;2024-02-26T09:03:34;0.63;;;0.60;;
37777;SDS011;23615;51.506;7.678;2024-02-26T09:06:00;0.80;;;0.70;;
37777;SDS011;23615;51.506;7.678;2024-02-26T09:08:25;1.67;;;0.87;;
37777;SDS011;23615;51.506;7.678;2024-02-26T09:10:50;1.20;;;1.10;;
37777;SDS011;23615;51.506;7.678;2024-02-26T09:13:16;0.70;;;0.70;;
37777;SDS011;23615;51.506;7.678;2024-02-26T09:15:41;0.80;;;0.80;;
37777;SDS011;23615;51.506;7.678;2024-02-26T09:18:06;0.93;;;0.77;;
37777;SDS011;23615;51.506;7.678;2024-02-26T09:20:31;1.43;;;1.03;;
37777;SDS011;23615;51.506;7.678;2024-02-26T09:22:57;1.73;;;1.00;;
37777;SDS011;23615;51.506;7.678;2024-02-26T09:25:22;1.40;;;0.97;;
37777;SDS011;23615;51.506;7.678;2024-02-26T09:27:47;1.20;;;1.10;;
37777;SDS011;23615;51.506;7.678;2024-02-26T09:30:13;1.90;;;0.97;;
37777;SDS011;23615;51.506;7.678;2024-02-26T09:32:39;1.73;;;0.73;;
37777;SDS011;23615;51.506;7.678;2024-02-26T09:35:08;2.20;;;1.23;;
37777;SDS011;23615;51.506;7.678;2024-02-26T09:37:33;1.63;;;1.30;;
37777;SDS011;23615;51.506;7.678;2024-02-26T09:39:59;2.03;;;1.30;;
37777;SDS011;23615;51.506;7.678;2024-02-26T09:42:25;2.60;;;1.10;;
37777;SDS011;23615;51.506;7.678;2024-02-26T09:44:51;2.63;;;1.52;;
37777;SDS011;23615;51.506;7.678;2024-02-26T09:47:20;2.33;;;1.65;;
37777;SDS011;23615;51.506;7.678;2024-02-26T09:49:47;2.83;;;1.67;;
37777;SDS011;23615;51.506;7.678;2024-02-26T09:52:14;2.23;;;1.50;;
37777;SDS011;23615;51.506;7.678;2024-02-26T09:54:40;4.05;;;1.17;;
37777;SDS011;23615;51.506;7.678;2024-02-26T09:57:06;1.80;;;1.30;;
37777;SDS011;23615;51.506;7.678;2024-02-26T09:59:39;2.05;;;1.38;;
37777;SDS011;23615;51.506;7.678;2024-02-26T10:02:08;1.58;;;1.40;;
37777;SDS011;23615;51.506;7.678;2024-02-26T10:04:36;2.20;;;1.33;;
37777;SDS011;23615;51.506;7.678;2024-02-26T10:07:01;1.88;;;1.15;;
37777;SDS011;23615;51.506;7.678;2024-02-26T10:09:28;1.70;;;1.45;;
37777;SDS011;23615;51.506;7.678;2024-02-26T10:11:54;2.05;;;1.60;;
37777;SDS011;23615;51.506;7.678;2024-02-26T10:14:20;3.10;;;2.27;;
37777;SDS011;23615;51.506;7.678;2024-02-26T10:16:46;2.33;;;1.90;;
37777;SDS011;23615;51.506;7.678;2024-02-26T10:19:19;2.45;;;2.10;;
37777;SDS011;23615;51.506;7.678;2024-02-26T10:21:52;2.38;;;1.98;;
37777;SDS011;23615;51.506;7.678;2024-02-26T10:24:21;2.92;;;2.40;;
37777;SDS011;23615;51.506;7.678;2024-02-26T10:26:46;3.70;;;2.33;;
37777;SDS011;23615;51.506;7.678;2024-02-26T10:29:12;2.78;;;2.00;;
37777;SDS011;23615;51.506;7.678;2024-02-26T10:31:37;3.37;;;2.50;;
37777;SDS011;23615;51.506;7.678;2024-02-26T10:34:02;3.33;;;2.57;;
37777;SDS011;23615;51.506;7.678;2024-02-26T10:36:28;3.60;;;2.87;;
37777;SDS011;23615;51.506;7.678;2024-02-26T10:38:54;3.93;;;2.37;;
37777;SDS011;23615;51.506;7.678;2024-02-26T10:41:19;2.95;;;2.65;;
37777;SDS011;23615;51.506;7.678;2024-02-26T10:43:46;3.23;;;2.90;;
37777;SDS011;23615;51.506;7.678;2024-02-26T10:46:12;3.90;;;2.47;;
37777;SDS011;23615;51.506;7.678;2024-02-26T10:48:37;3.00;;;2.40;;
37777;SDS011;23615;51.506;7.678;2024-02-26T10:51:03;3.30;;;2.70;;
37777;SDS011;23615;51.506;7.678;2024-02-26T10:53:29;2.35;;;1.80;;
37777;SDS011;23615;51.506;7.678;2024-02-26T10:56:01;2.90;;;2.30;;
37777;SDS011;23615;51.506;7.678;2024-02-26T10:58:28;3.55;;;2.80;;
37777;SDS011;23615;51.506;7.678;2024-02-26T11:00:54;4.45;;;3.05;;
37777;SDS011;23615;51.506;7.678;2024-02-26T11:03:21;4.47;;;3.00;;
37777;SDS011;23615;51.506;7.678;2024-02-26T11:05:50;4.20;;;3.27;;
37777;SDS011;23615;51.506;7.678;2024-02-26T11:08:17;3.03;;;2.50;;
37777;SDS011;23615;51.506;7.678;2024-02-26T11:10:45;5.30;;;3.42;;
37777;SDS011;23615;51.506;7.678;2024-02-26T11:13:14;4.22;;;2.88;;
37777;SDS011;23615;51.506;7.678;2024-02-26T11:15:39;4.38;;;2.83;;
37777;SDS011;23615;51.506;7.678;2024-02-26T11:18:05;4.37;;;3.23;;
37777;SDS011;23615;51.506;7.678;2024-02-26T11:20:32;5.43;;;3.63;;
37777;SDS011;23615;51.506;7.678;2024-02-26T11:22:59;4.00;;;2.70;;
37777;SDS011;23615;51.506;7.678;2024-02-26T11:25:24;2.70;;;2.30;;
37777;SDS011;23615;51.506;7.678;2024-02-26T11:27:58;3.07;;;2.67;;
37777;SDS011;23615;51.506;7.678;2024-02-26T11:30:29;2.53;;;2.13;;
37777;SDS011;23615;51.506;7.678;2024-02-26T11:32:56;4.93;;;1.90;;
37777;SDS011;23615;51.506;7.678;2024-02-26T11:35:22;2.57;;;1.77;;
37777;SDS011;23615;51.506;7.678;2024-02-26T11:37:54;2.22;;;1.60;;
37777;SDS011;23615;51.506;7.678;2024-02-26T11:40:22;3.55;;;2.10;;
37777;SDS011;23615;51.506;7.678;2024-02-26T11:42:49;2.53;;;2.33;;
37777;SDS011;23615;51.506;7.678;2024-02-26T11:48:03;2.97;;;2.20;;
37777;SDS011;23615;51.506;7.678;2024-02-26T11:50:36;1.98;;;1.30;;
37777;SDS011;23615;51.506;7.678;2024-02-26T11:55:47;2.72;;;1.70;;
37777;SDS011;23615;51.506;7.678;2024-02-26T11:58:14;1.73;;;1.45;;
37777;SDS011;23615;51.506;7.678;2024-02-26T12:00:40;2.43;;;1.53;;
37777;SDS011;23615;51.506;7.678;2024-02-26T12:03:05;3.17;;;1.70;;
37777;SDS011;23615;51.506;7.678;2024-02-26T12:05:33;2.15;;;1.45;;
37777;SDS011;23615;51.506;7.678;2024-02-26T12:08:05;2.00;;;1.60;;
37777;SDS011;23615;51.506;7.678;2024-02-26T12:10:33;1.58;;;1.48;;
37777;SDS011;23615;51.506;7.678;2024-02-26T12:13:14;3.38;;;1.95;;
37777;SDS011;23615;51.506;7.678;2024-02-26T12:15:44;1.95;;;1.65;;
37777;SDS011;23615;51.506;7.678;2024-02-26T12:18:10;2.23;;;1.67;;
37777;SDS011;23615;51.506;7.678;2024-02-26T12:20:42;1.35;;;1.25;;
37777;SDS011;23615;51.506;7.678;2024-02-26T12:23:09;2.10;;;1.90;;
37777;SDS011;23615;51.506;7.678;2024-02-26T12:25:39;2.28;;;2.08;;
37777;SDS011;23615;51.506;7.678;2024-02-26T12:28:04;2.30;;;1.90;;
37777;SDS011;23615;51.506;7.678;2024-02-26T12:30:29;3.03;;;2.43;;
37777;SDS011;23615;51.506;7.678;2024-02-26T12:32:56;3.20;;;2.40;;
37777;SDS011;23615;51.506;7.678;2024-02-26T12:35:22;2.43;;;2.23;;
37777;SDS011;23615;51.506;7.678;2024-02-26T12:37:48;3.35;;;2.03;;
37777;SDS011;23615;51.506;7.678;2024-02-26T12:40:16;2.97;;;2.17;;
37777;SDS011;23615;51.506;7.678;2024-02-26T12:42:42;3.80;;;3.20;;
37777;SDS011;23615;51.506;7.678;2024-02-26T12:45:10;3.90;;;3.23;;
37777;SDS011;23615;51.506;7.678;2024-02-26T12:47:40;4.05;;;3.30;;
37777;SDS011;23615;51.506;7.678;2024-02-26T12:50:07;4.00;;;3.05;;
37777;SDS011;23615;51.506;7.678;2024-02-26T12:52:33;4.13;;;3.40;;
37777;SDS011;23615;51.506;7.678;2024-02-26T12:55:01;4.43;;;3.65;;
37777;SDS011;23615;51.506;7.678;2024-02-26T12:57:31;4.60;;;3.00;;
37777;SDS011;23615;51.506;7.678;2024-02-26T12:59:57;3.77;;;3.47;;
37777;SDS011;23615;51.506;7.678;2024-02-26T13:02:24;3.85;;;3.17;;
37777;SDS011;23615;51.506;7.678;2024-02-26T13:04:50;4.45;;;3.47;;
37777;SDS011;23615;51.506;7.678;2024-02-26T13:07:16;5.65;;;3.95;;
37777;SDS011;23615;51.506;7.678;2024-02-26T13:09:41;4.53;;;3.33;;
37777;SDS011;23615;51.506;7.678;2024-02-26T13:12:07;3.30;;;3.00;;
37777;SDS011;23615;51.506;7.678;2024-02-26T13:14:33;3.50;;;2.90;;
37777;SDS011;23615;51.506;7.678;2024-02-26T13:16:59;3.80;;;3.10;;
37777;SDS011;23615;51.506;7.678;2024-02-26T13:19:25;4.35;;;3.17;;
37777;SDS011;23615;51.506;7.678;2024-02-26T13:21:51;3.80;;;2.70;;
37777;SDS011;23615;51.506;7.678;2024-02-26T13:24:16;3.50;;;2.57;;
37777;SDS011;23615;51.506;7.678;2024-02-26T13:26:43;3.17;;;2.78;;
37777;SDS011;23615;51.506;7.678;2024-02-26T13:29:08;3.37;;;3.07;;
37777;SDS011;23615;51.506;7.678;2024-02-26T13:31:39;2.80;;;2.40;;
37777;SDS011;23615;51.506;7.678;2024-02-26T13:34:05;2.45;;;2.22;;
37777;SDS011;23615;51.506;7.678;2024-02-26T13:36:30;3.37;;;3.07;;
37777;SDS011;23615;51.506;7.678;2024-02-26T13:38:56;3.40;;;2.43;;
37777;SDS011;23615;51.506;7.678;2024-02-26T13:41:21;3.37;;;2.70;;
37777;SDS011;23615;51.506;7.678;2024-02-26T13:43:47;3.63;;;2.80;;
37777;SDS011;23615;51.506;7.678;2024-02-26T13:46:12;2.60;;;2.20;;
37777;SDS011;23615;51.506;7.678;2024-02-26T13:48:40;2.80;;;2.28;;
37777;SDS011;23615;51.506;7.678;2024-02-26T13:51:06;3.42;;;2.53;;
37777;SDS011;23615;51.506;7.678;2024-02-26T13:53:31;3.90;;;2.53;;
37777;SDS011;23615;51.506;7.678;2024-02-26T13:55:57;3.23;;;2.40;;
37777;SDS011;23615;51.506;7.678;2024-02-26T13:58:25;3.42;;;2.70;;
37777;SDS011;23615;51.506;7.678;2024-02-26T14:00:52;3.92;;;2.95;;
37777;SDS011;23615;51.506;7.678;2024-02-26T14:03:18;3.13;;;2.37;;
37777;SDS011;23615;51.506;7.678;2024-02-26T14:05:44;4.20;;;3.13;;
37777;SDS011;23615;51.506;7.678;2024-02-26T14:08:09;3.90;;;3.27;;
37777;SDS011;23615;51.506;7.678;2024-02-26T14:10:34;3.83;;;3.47;;
37777;SDS011;23615;51.506;7.678;2024-02-26T14:13:00;3.70;;;3.28;;
37777;SDS011;23615;51.506;7.678;2024-02-26T14:15:26;4.13;;;3.73;;
37777;SDS011;23615;51.506;7.678;2024-02-26T14:17:53;4.32;;;3.83;;
37777;SDS011;23615;51.506;7.678;2024-02-26T14:20:21;5.13;;;3.63;;
37777;SDS011;23615;51.506;7.678;2024-02-26T14:22:50;5.07;;;3.97;;
37777;SDS011;23615;51.506;7.678;2024-02-26T14:25:19;4.45;;;3.60;;
37777;SDS011;23615;51.506;7.678;2024-02-26T14:27:45;3.75;;;3.15;;
37777;SDS011;23615;51.506;7.678;2024-02-26T14:30:11;4.70;;;3.63;;
37777;SDS011;23615;51.506;7.678;2024-02-26T14:32:37;4.53;;;4.00;;
37777;SDS011;23615;51.506;7.678;2024-02-26T14:35:04;5.10;;;3.70;;
37777;SDS011;23615;51.506;7.678;2024-02-26T14:37:31;5.80;;;3.50;;
37777;SDS011;23615;51.506;7.678;2024-02-26T14:39:56;4.60;;;3.33;;
37777;SDS011;23615;51.506;7.678;2024-02-26T14:42:22;3.60;;;3.30;;
37777;SDS011;23615;51.506;7.678;2024-02-26T14:44:49;3.28;;;2.83;;
37777;SDS011;23615;51.506;7.678;2024-02-26T14:47:15;5.70;;;3.42;;